sensor_id;sensor_type;location;lat;lon;timestamp;pressure;altitude;pressure_sealevel;temperature;humidity
40502;BME280;29631;49.168;9.848;2023-06-19T00:02:17;96201.97;;;27.25;67.32
40502;BME280;29631;49.168;9.848;2023-06-19T00:04:43;96204.69;;;27.25;67.40
40502;BME280;29631;49.168;9.848;2023-06-19T00:07:09;96188.47;;;27.09;67.85
40502;BME280;29631;49.168;9.848;2023-06-19T00:09:34;96194.03;;;27.12;68.37
40502;BME280;29631;49.168;9.848;2023-06-19T00:12:00;96208.34;;;27.21;68.66
40502;BME280;29631;49.168;9.848;2023-06-19T00:14:27;96204.03;;;27.12;68.10
40502;BME280;29631;49.168;9.848;2023-06-19T00:16:52;96214.41;;;27.18;68.29
40502;BME280;29631;49.168;9.848;2023-06-19T00:19:18;96215.69;;;27.20;68.84
40502;BME280;29631;49.168;9.848;2023-06-19T00:21:44;96216.00;;;27.02;68.90
40502;BME280;29631;49.168;9.848;2023-06-19T00:24:10;96213.00;;;27.04;68.93
40502;BME280;29631;49.168;9.848;2023-06-19T00:26:37;96217.59;;;27.03;68.77
40502;BME280;29631;49.168;9.848;2023-06-19T00:29:03;96224.44;;;27.01;68.52
40502;BME280;29631;49.168;9.848;2023-06-19T00:31:29;96222.06;;;27.08;68.61
40502;BME280;29631;49.168;9.848;2023-06-19T00:33:54;96211.22;;;26.99;68.41
40502;BME280;29631;49.168;9.848;2023-06-19T00:36:20;96200.69;;;26.89;67.79
40502;BME280;29631;49.168;9.848;2023-06-19T00:38:47;96216.47;;;26.96;67.31
40502;BME280;29631;49.168;9.848;2023-06-19T00:41:15;96209.28;;;26.91;67.06
40502;BME280;29631;49.168;9.848;2023-06-19T00:43:41;96208.34;;;26.87;66.96
40502;BME280;29631;49.168;9.848;2023-06-19T00:46:07;96219.00;;;26.92;66.95
40502;BME280;29631;49.168;9.848;2023-06-19T00:48:34;96218.03;;;26.88;66.86
40502;BME280;29631;49.168;9.848;2023-06-19T00:51:00;96206.75;;;26.86;66.57
40502;BME280;29631;49.168;9.848;2023-06-19T00:53:27;96205.31;;;26.89;66.91
40502;BME280;29631;49.168;9.848;2023-06-19T00:55:54;96198.63;;;26.86;66.59
40502;BME280;29631;49.168;9.848;2023-06-19T00:58:22;96230.34;;;27.03;66.63
40502;BME280;29631;49.168;9.848;2023-06-19T01:00:49;96216.47;;;26.96;66.86
40502;BME280;29631;49.168;9.848;2023-06-19T01:03:15;96227.16;;;27.01;66.58
40502;BME280;29631;49.168;9.848;2023-06-19T01:05:42;96179.66;;;26.69;66.42
40502;BME280;29631;49.168;9.848;2023-06-19T01:10:58;96245.31;;;27.00;66.43
40502;BME280;29631;49.168;9.848;2023-06-19T01:16:06;96243.06;;;27.02;66.17
40502;BME280;29631;49.168;9.848;2023-06-19T01:18:33;96241.47;;;27.01;66.56
40502;BME280;29631;49.168;9.848;2023-06-19T01:21:13;96247.38;;;27.03;66.74
40502;BME280;29631;49.168;9.848;2023-06-19T01:23:39;96238.31;;;26.99;66.63
40502;BME280;29631;49.168;9.848;2023-06-19T01:26:09;96236.50;;;26.95;67.08
40502;BME280;29631;49.168;9.848;2023-06-19T01:28:41;96262.50;;;27.04;67.77
40502;BME280;29631;49.168;9.848;2023-06-19T01:31:13;96237.94;;;26.92;67.68
40502;BME280;29631;49.168;9.848;2023-06-19T01:33:43;96230.44;;;26.89;67.51
40502;BME280;29631;49.168;9.848;2023-06-19T01:36:10;96244.63;;;26.95;68.01
40502;BME280;29631;49.168;9.848;2023-06-19T01:38:38;96223.75;;;26.78;67.84
40502;BME280;29631;49.168;9.848;2023-06-19T01:41:07;96236.50;;;26.78;68.22
40502;BME280;29631;49.168;9.848;2023-06-19T01:43:33;96230.94;;;26.74;68.13
40502;BME280;29631;49.168;9.848;2023-06-19T01:46:00;96241.28;;;26.72;68.67
40502;BME280;29631;49.168;9.848;2023-06-19T01:48:26;96247.47;;;26.64;68.66
40502;BME280;29631;49.168;9.848;2023-06-19T01:50:52;96264.19;;;26.75;68.78
40502;BME280;29631;49.168;9.848;2023-06-19T01:53:18;96260.03;;;26.60;68.64
40502;BME280;29631;49.168;9.848;2023-06-19T01:55:44;96270.69;;;26.65;68.92
40502;BME280;29631;49.168;9.848;2023-06-19T01:58:10;96268.63;;;26.62;69.11
40502;BME280;29631;49.168;9.848;2023-06-19T02:00:35;96276.56;;;26.59;69.02
40502;BME280;29631;49.168;9.848;2023-06-19T02:03:03;96269.06;;;26.47;69.47
40502;BME280;29631;49.168;9.848;2023-06-19T02:05:30;96285.00;;;26.57;69.34
40502;BME280;29631;49.168;9.848;2023-06-19T02:07:56;96292.44;;;26.43;69.13
40502;BME280;29631;49.168;9.848;2023-06-19T02:10:22;96281.75;;;26.39;68.72
40502;BME280;29631;49.168;9.848;2023-06-19T02:12:47;96287.72;;;26.27;68.48
40502;BME280;29631;49.168;9.848;2023-06-19T02:15:13;96303.13;;;26.48;68.03
40502;BME280;29631;49.168;9.848;2023-06-19T02:17:39;96296.38;;;26.38;68.07
40502;BME280;29631;49.168;9.848;2023-06-19T02:20:05;96292.19;;;26.32;67.83
40502;BME280;29631;49.168;9.848;2023-06-19T02:22:39;96247.56;;;26.04;68.00
40502;BME280;29631;49.168;9.848;2023-06-19T02:25:06;96297.00;;;26.35;68.13
40502;BME280;29631;49.168;9.848;2023-06-19T02:27:32;96290.91;;;26.29;68.18
40502;BME280;29631;49.168;9.848;2023-06-19T02:29:58;96281.69;;;26.22;68.27
40502;BME280;29631;49.168;9.848;2023-06-19T02:32:24;96275.91;;;26.15;68.10
40502;BME280;29631;49.168;9.848;2023-06-19T02:34:50;96292.34;;;26.27;68.13
40502;BME280;29631;49.168;9.848;2023-06-19T02:37:16;96287.88;;;26.22;68.21
40502;BME280;29631;49.168;9.848;2023-06-19T02:39:42;96288.69;;;26.23;68.43
40502;BME280;29631;49.168;9.848;2023-06-19T02:42:08;96325.03;;;26.39;68.57
40502;BME280;29631;49.168;9.848;2023-06-19T02:44:33;96324.25;;;26.38;68.99
40502;BME280;29631;49.168;9.848;2023-06-19T02:46:59;96314.81;;;26.36;69.28
40502;BME280;29631;49.168;9.848;2023-06-19T02:49:25;96335.25;;;26.42;69.17
40502;BME280;29631;49.168;9.848;2023-06-19T02:51:51;96281.75;;;26.08;68.80
40502;BME280;29631;49.168;9.848;2023-06-19T02:54:16;96332.22;;;26.43;69.40
40502;BME280;29631;49.168;9.848;2023-06-19T02:56:42;96298.09;;;26.34;69.11
40502;BME280;29631;49.168;9.848;2023-06-19T02:59:08;96317.88;;;26.42;69.49
40502;BME280;29631;49.168;9.848;2023-06-19T03:01:34;96318.38;;;26.44;69.31
40502;BME280;29631;49.168;9.848;2023-06-19T03:04:00;96314.38;;;26.42;69.27
40502;BME280;29631;49.168;9.848;2023-06-19T03:06:25;96318.69;;;26.43;69.58
40502;BME280;29631;49.168;9.848;2023-06-19T03:08:51;96326.97;;;26.46;69.21
40502;BME280;29631;49.168;9.848;2023-06-19T03:11:17;96319.34;;;26.48;69.77
40502;BME280;29631;49.168;9.848;2023-06-19T03:13:54;96314.41;;;26.50;70.06
40502;BME280;29631;49.168;9.848;2023-06-19T03:16:21;96328.78;;;26.59;69.73
40502;BME280;29631;49.168;9.848;2023-06-19T03:18:47;96331.97;;;26.61;69.64
40502;BME280;29631;49.168;9.848;2023-06-19T03:21:16;96335.81;;;26.69;69.82
40502;BME280;29631;49.168;9.848;2023-06-19T03:23:44;96337.41;;;26.70;69.81
40502;BME280;29631;49.168;9.848;2023-06-19T03:26:10;96341.41;;;26.72;69.73
40502;BME280;29631;49.168;9.848;2023-06-19T03:28:36;96337.69;;;26.68;70.09
40502;BME280;29631;49.168;9.848;2023-06-19T03:31:02;96330.38;;;26.60;69.88
40502;BME280;29631;49.168;9.848;2023-06-19T03:33:28;96346.81;;;26.72;70.23
40502;BME280;29631;49.168;9.848;2023-06-19T03:35:54;96335.00;;;26.68;70.09
40502;BME280;29631;49.168;9.848;2023-06-19T03:38:20;96356.53;;;26.73;70.19
40502;BME280;29631;49.168;9.848;2023-06-19T03:40:46;96339.13;;;26.66;70.32
40502;BME280;29631;49.168;9.848;2023-06-19T03:43:12;96320.66;;;26.59;70.24
40502;BME280;29631;49.168;9.848;2023-06-19T03:45:37;96359.09;;;26.78;70.47
40502;BME280;29631;49.168;9.848;2023-06-19T03:48:04;96342.69;;;26.75;70.66
40502;BME280;29631;49.168;9.848;2023-06-19T03:50:29;96347.75;;;26.76;70.63
40502;BME280;29631;49.168;9.848;2023-06-19T03:52:55;96345.88;;;26.77;70.78
40502;BME280;29631;49.168;9.848;2023-06-19T03:55:21;96357.50;;;26.86;70.52
40502;BME280;29631;49.168;9.848;2023-06-19T03:57:47;96344.91;;;26.81;70.94
40502;BME280;29631;49.168;9.848;2023-06-19T04:00:14;96347.94;;;26.80;70.96
40502;BME280;29631;49.168;9.848;2023-06-19T04:02:40;96315.09;;;26.56;70.80
40502;BME280;29631;49.168;9.848;2023-06-19T04:05:07;96371.84;;;26.78;70.54
40502;BME280;29631;49.168;9.848;2023-06-19T04:07:33;96375.50;;;26.90;71.04
40502;BME280;29631;49.168;9.848;2023-06-19T04:09:59;96378.97;;;26.82;71.00
40502;BME280;29631;49.168;9.848;2023-06-19T04:12:25;96367.34;;;26.73;71.07
40502;BME280;29631;49.168;9.848;2023-06-19T04:14:50;96384.06;;;26.75;71.17
40502;BME280;29631;49.168;9.848;2023-06-19T04:17:17;96404.78;;;26.88;70.97
40502;BME280;29631;49.168;9.848;2023-06-19T04:19:43;96389.47;;;26.75;71.37
40502;BME280;29631;49.168;9.848;2023-06-19T04:22:09;96407.00;;;26.78;71.65
40502;BME280;29631;49.168;9.848;2023-06-19T04:24:35;96355.75;;;26.42;71.71
40502;BME280;29631;49.168;9.848;2023-06-19T04:27:01;96349.22;;;26.43;71.98
40502;BME280;29631;49.168;9.848;2023-06-19T04:29:27;96404.75;;;26.71;72.30
40502;BME280;29631;49.168;9.848;2023-06-19T04:31:58;96399.63;;;26.61;72.66
40502;BME280;29631;49.168;9.848;2023-06-19T04:34:24;96391.63;;;26.56;72.63
40502;BME280;29631;49.168;9.848;2023-06-19T04:36:51;96409.19;;;26.67;72.90
40502;BME280;29631;49.168;9.848;2023-06-19T04:39:17;96394.22;;;26.61;72.80
40502;BME280;29631;49.168;9.848;2023-06-19T04:41:43;96415.56;;;26.71;72.97
40502;BME280;29631;49.168;9.848;2023-06-19T04:44:10;96398.03;;;26.60;72.96
40502;BME280;29631;49.168;9.848;2023-06-19T04:46:37;96409.19;;;26.67;72.94
40502;BME280;29631;49.168;9.848;2023-06-19T04:49:04;96408.19;;;26.63;72.46
40502;BME280;29631;49.168;9.848;2023-06-19T04:51:33;96410.16;;;26.71;73.00
40502;BME280;29631;49.168;9.848;2023-06-19T04:53:59;96427.53;;;26.79;73.28
40502;BME280;29631;49.168;9.848;2023-06-19T04:56:25;96420.38;;;26.74;73.16
40502;BME280;29631;49.168;9.848;2023-06-19T04:58:51;96411.75;;;26.72;73.22
40502;BME280;29631;49.168;9.848;2023-06-19T05:01:17;96434.38;;;26.76;73.67
40502;BME280;29631;49.168;9.848;2023-06-19T05:03:45;96405.50;;;26.63;73.58
40502;BME280;29631;49.168;9.848;2023-06-19T05:06:14;96430.91;;;26.84;73.78
40502;BME280;29631;49.168;9.848;2023-06-19T05:08:40;96429.31;;;26.83;73.63
40502;BME280;29631;49.168;9.848;2023-06-19T05:11:05;96410.50;;;26.78;73.72
40502;BME280;29631;49.168;9.848;2023-06-19T05:13:31;96405.25;;;26.82;73.69
40502;BME280;29631;49.168;9.848;2023-06-19T05:15:57;96435.41;;;26.97;73.72
40502;BME280;29631;49.168;9.848;2023-06-19T05:18:22;96426.19;;;26.98;73.79
40502;BME280;29631;49.168;9.848;2023-06-19T05:20:48;96436.41;;;27.01;74.10
40502;BME280;29631;49.168;9.848;2023-06-19T05:23:14;96423.81;;;26.97;74.04
40502;BME280;29631;49.168;9.848;2023-06-19T05:25:40;96456.38;;;27.14;74.04
40502;BME280;29631;49.168;9.848;2023-06-19T05:28:05;96437.72;;;27.04;74.05
40502;BME280;29631;49.168;9.848;2023-06-19T05:30:31;96450.78;;;27.10;74.59
40502;BME280;29631;49.168;9.848;2023-06-19T05:32:57;96444.88;;;27.08;74.42
40502;BME280;29631;49.168;9.848;2023-06-19T05:35:23;96445.84;;;27.12;74.65
40502;BME280;29631;49.168;9.848;2023-06-19T05:37:48;96439.00;;;27.06;74.23
40502;BME280;29631;49.168;9.848;2023-06-19T05:40:14;96446.47;;;27.09;74.71
40502;BME280;29631;49.168;9.848;2023-06-19T05:42:40;96428.91;;;26.98;74.83
40502;BME280;29631;49.168;9.848;2023-06-19T05:45:07;96447.75;;;27.12;75.03
40502;BME280;29631;49.168;9.848;2023-06-19T05:47:33;96454.09;;;27.07;74.78
40502;BME280;29631;49.168;9.848;2023-06-19T05:49:59;96465.94;;;27.19;74.79
40502;BME280;29631;49.168;9.848;2023-06-19T05:52:25;96453.97;;;27.12;74.99
40502;BME280;29631;49.168;9.848;2023-06-19T05:54:51;96457.31;;;27.17;75.06
40502;BME280;29631;49.168;9.848;2023-06-19T05:57:19;96465.00;;;27.24;74.75
40502;BME280;29631;49.168;9.848;2023-06-19T05:59:48;96473.47;;;27.31;75.00
40502;BME280;29631;49.168;9.848;2023-06-19T06:02:14;96421.72;;;26.94;74.84
40502;BME280;29631;49.168;9.848;2023-06-19T06:04:41;96469.50;;;27.37;75.59
40502;BME280;29631;49.168;9.848;2023-06-19T06:07:06;96408.72;;;27.04;75.23
40502;BME280;29631;49.168;9.848;2023-06-19T06:09:32;96473.34;;;27.44;75.18
40502;BME280;29631;49.168;9.848;2023-06-19T06:12:00;96442.06;;;27.30;74.98
40502;BME280;29631;49.168;9.848;2023-06-19T06:14:26;96456.31;;;27.44;75.21
40502;BME280;29631;49.168;9.848;2023-06-19T06:16:53;96461.41;;;27.54;75.10
40502;BME280;29631;49.168;9.848;2023-06-19T06:19:22;96445.63;;;27.47;75.33
40502;BME280;29631;49.168;9.848;2023-06-19T06:21:51;96436.41;;;27.48;74.97
40502;BME280;29631;49.168;9.848;2023-06-19T06:24:17;96438.78;;;27.50;75.37
40502;BME280;29631;49.168;9.848;2023-06-19T06:26:43;96462.75;;;27.65;75.47
40502;BME280;29631;49.168;9.848;2023-06-19T06:29:09;96463.69;;;27.69;75.47
40502;BME280;29631;49.168;9.848;2023-06-19T06:31:38;96462.75;;;27.65;75.35
40502;BME280;29631;49.168;9.848;2023-06-19T06:34:04;96475.31;;;27.69;75.30
40502;BME280;29631;49.168;9.848;2023-06-19T06:36:29;96483.50;;;27.78;75.23
40502;BME280;29631;49.168;9.848;2023-06-19T06:38:55;96462.88;;;27.60;75.72
40502;BME280;29631;49.168;9.848;2023-06-19T06:41:21;96476.94;;;27.70;75.88
40502;BME280;29631;49.168;9.848;2023-06-19T06:43:47;96475.50;;;27.73;75.96
40502;BME280;29631;49.168;9.848;2023-06-19T06:46:13;96468.16;;;27.65;75.97
40502;BME280;29631;49.168;9.848;2023-06-19T06:48:40;96480.47;;;27.71;75.96
40502;BME280;29631;49.168;9.848;2023-06-19T06:51:05;96495.75;;;27.75;76.37
40502;BME280;29631;49.168;9.848;2023-06-19T06:53:31;96493.34;;;27.74;76.10
40502;BME280;29631;49.168;9.848;2023-06-19T06:55:59;96510.63;;;27.86;76.01
40502;BME280;29631;49.168;9.848;2023-06-19T06:58:26;96499.91;;;27.81;76.27
40502;BME280;29631;49.168;9.848;2023-06-19T07:00:52;96504.53;;;27.81;76.33
40502;BME280;29631;49.168;9.848;2023-06-19T07:03:18;96488.75;;;27.74;76.31
40502;BME280;29631;49.168;9.848;2023-06-19T07:05:44;96507.41;;;27.92;76.49
40502;BME280;29631;49.168;9.848;2023-06-19T07:08:11;96505.03;;;27.91;76.41
40502;BME280;29631;49.168;9.848;2023-06-19T07:10:36;96493.53;;;27.86;76.72
40502;BME280;29631;49.168;9.848;2023-06-19T07:13:02;96449.66;;;27.67;76.39
40502;BME280;29631;49.168;9.848;2023-06-19T07:15:28;96489.53;;;27.91;76.18
40502;BME280;29631;49.168;9.848;2023-06-19T07:17:54;96515.72;;;28.04;76.31
40502;BME280;29631;49.168;9.848;2023-06-19T07:20:19;96497.84;;;28.03;76.37
40502;BME280;29631;49.168;9.848;2023-06-19T07:22:45;96494.66;;;28.01;76.39
40502;BME280;29631;49.168;9.848;2023-06-19T07:25:12;96520.84;;;28.14;76.45
40502;BME280;29631;49.168;9.848;2023-06-19T07:27:40;96525.03;;;28.20;76.76
40502;BME280;29631;49.168;9.848;2023-06-19T07:30:07;96501.69;;;28.11;76.27
40502;BME280;29631;49.168;9.848;2023-06-19T07:32:33;96508.75;;;28.20;77.01
40502;BME280;29631;49.168;9.848;2023-06-19T07:34:58;96513.84;;;28.30;76.58
40502;BME280;29631;49.168;9.848;2023-06-19T07:37:24;96475.19;;;28.16;76.54
40502;BME280;29631;49.168;9.848;2023-06-19T07:39:51;96501.56;;;28.24;76.97
40502;BME280;29631;49.168;9.848;2023-06-19T07:42:20;96516.56;;;28.47;76.66
40502;BME280;29631;49.168;9.848;2023-06-19T07:44:46;96491.81;;;28.40;76.32
40502;BME280;29631;49.168;9.848;2023-06-19T07:47:16;96494.66;;;28.52;76.13
40502;BME280;29631;49.168;9.848;2023-06-19T07:49:44;96510.44;;;28.59;76.97
40502;BME280;29631;49.168;9.848;2023-06-19T07:52:10;96497.69;;;28.59;76.76
40502;BME280;29631;49.168;9.848;2023-06-19T07:54:36;96489.56;;;28.59;76.47
40502;BME280;29631;49.168;9.848;2023-06-19T07:57:12;96494.81;;;28.56;76.18
40502;BME280;29631;49.168;9.848;2023-06-19T07:59:38;96489.06;;;28.74;76.66
40502;BME280;29631;49.168;9.848;2023-06-19T08:02:04;96466.25;;;28.58;76.80
40502;BME280;29631;49.168;9.848;2023-06-19T08:04:30;96486.94;;;28.88;76.22
40502;BME280;29631;49.168;9.848;2023-06-19T08:06:56;96497.63;;;29.01;76.52
40502;BME280;29631;49.168;9.848;2023-06-19T08:09:21;96487.69;;;29.05;76.23
40502;BME280;29631;49.168;9.848;2023-06-19T08:11:48;96475.59;;;28.94;75.85
40502;BME280;29631;49.168;9.848;2023-06-19T08:14:13;96500.47;;;29.05;75.68
40502;BME280;29631;49.168;9.848;2023-06-19T08:16:39;96495.97;;;29.09;75.96
40502;BME280;29631;49.168;9.848;2023-06-19T08:19:05;96515.78;;;29.18;75.75
40502;BME280;29631;49.168;9.848;2023-06-19T08:21:30;96523.56;;;29.28;75.98
40502;BME280;29631;49.168;9.848;2023-06-19T08:23:56;96500.41;;;29.22;75.65
40502;BME280;29631;49.168;9.848;2023-06-19T08:26:22;96500.75;;;29.20;75.81
40502;BME280;29631;49.168;9.848;2023-06-19T08:28:48;96517.47;;;29.31;76.03
40502;BME280;29631;49.168;9.848;2023-06-19T08:31:13;96509.53;;;29.26;76.01
40502;BME280;29631;49.168;9.848;2023-06-19T08:33:39;96527.50;;;29.47;75.95
40502;BME280;29631;49.168;9.848;2023-06-19T08:36:05;96521.84;;;29.60;76.11
40502;BME280;29631;49.168;9.848;2023-06-19T08:38:31;96522.44;;;29.66;76.41
40502;BME280;29631;49.168;9.848;2023-06-19T08:40:57;96519.00;;;29.77;75.68
40502;BME280;29631;49.168;9.848;2023-06-19T08:43:23;96512.00;;;29.76;75.88
40502;BME280;29631;49.168;9.848;2023-06-19T08:46:11;96524.91;;;29.79;75.91
40502;BME280;29631;49.168;9.848;2023-06-19T08:48:38;96519.28;;;29.84;75.51
40502;BME280;29631;49.168;9.848;2023-06-19T08:51:05;96522.59;;;29.98;75.25
40502;BME280;29631;49.168;9.848;2023-06-19T08:53:43;96521.19;;;29.92;75.49
40502;BME280;29631;49.168;9.848;2023-06-19T08:56:09;96525.78;;;30.00;75.54
40502;BME280;29631;49.168;9.848;2023-06-19T08:58:35;96534.22;;;30.07;75.24
40502;BME280;29631;49.168;9.848;2023-06-19T09:01:02;96521.25;;;30.04;75.49
40502;BME280;29631;49.168;9.848;2023-06-19T09:03:27;96529.91;;;30.06;75.38
40502;BME280;29631;49.168;9.848;2023-06-19T09:05:53;96533.88;;;30.09;75.53
40502;BME280;29631;49.168;9.848;2023-06-19T09:08:20;96517.16;;;29.98;75.65
40502;BME280;29631;49.168;9.848;2023-06-19T09:11:03;96529.63;;;29.99;75.51
40502;BME280;29631;49.168;9.848;2023-06-19T09:13:30;96532.81;;;30.01;75.00
40502;BME280;29631;49.168;9.848;2023-06-19T09:16:08;96536.91;;;29.87;74.97
40502;BME280;29631;49.168;9.848;2023-06-19T09:18:48;96542.19;;;29.83;75.36
40502;BME280;29631;49.168;9.848;2023-06-19T09:21:20;96538.31;;;29.84;75.75
40502;BME280;29631;49.168;9.848;2023-06-19T09:23:48;96526.31;;;29.85;75.69
40502;BME280;29631;49.168;9.848;2023-06-19T09:26:17;96533.34;;;29.95;75.25
40502;BME280;29631;49.168;9.848;2023-06-19T09:28:45;96525.50;;;29.93;75.05
40502;BME280;29631;49.168;9.848;2023-06-19T09:31:11;96512.38;;;29.95;75.03
40502;BME280;29631;49.168;9.848;2023-06-19T09:33:39;96539.25;;;30.17;74.85
40502;BME280;29631;49.168;9.848;2023-06-19T09:36:06;96522.78;;;30.14;74.95
40502;BME280;29631;49.168;9.848;2023-06-19T09:38:38;96522.34;;;30.12;75.40
40502;BME280;29631;49.168;9.848;2023-06-19T09:41:06;96514.75;;;30.17;74.68
40502;BME280;29631;49.168;9.848;2023-06-19T09:43:43;96526.59;;;30.21;74.54
40502;BME280;29631;49.168;9.848;2023-06-19T09:46:11;96532.03;;;30.21;74.63
40502;BME280;29631;49.168;9.848;2023-06-19T09:48:43;96528.19;;;30.22;75.13
40502;BME280;29631;49.168;9.848;2023-06-19T09:51:21;96524.00;;;30.24;75.07
40502;BME280;29631;49.168;9.848;2023-06-19T09:53:50;96530.97;;;30.34;74.91
40502;BME280;29631;49.168;9.848;2023-06-19T09:56:17;96513.25;;;30.28;75.44
40502;BME280;29631;49.168;9.848;2023-06-19T09:58:48;96534.56;;;30.46;75.53
40502;BME280;29631;49.168;9.848;2023-06-19T10:01:16;96516.75;;;30.49;75.34
40502;BME280;29631;49.168;9.848;2023-06-19T10:03:44;96513.66;;;30.59;75.58
40502;BME280;29631;49.168;9.848;2023-06-19T10:06:14;96478.13;;;30.35;75.28
40502;BME280;29631;49.168;9.848;2023-06-19T10:08:44;96508.66;;;30.61;75.34
40502;BME280;29631;49.168;9.848;2023-06-19T10:11:11;96515.28;;;30.72;75.33
40502;BME280;29631;49.168;9.848;2023-06-19T10:13:40;96545.41;;;30.87;74.97
40502;BME280;29631;49.168;9.848;2023-06-19T10:16:26;96536.66;;;30.93;75.05
40502;BME280;29631;49.168;9.848;2023-06-19T10:18:52;96536.75;;;31.05;74.83
40502;BME280;29631;49.168;9.848;2023-06-19T10:21:19;96529.94;;;31.11;75.40
40502;BME280;29631;49.168;9.848;2023-06-19T10:23:57;96527.34;;;31.15;75.10
40502;BME280;29631;49.168;9.848;2023-06-19T10:26:35;96522.44;;;31.20;75.26
40502;BME280;29631;49.168;9.848;2023-06-19T10:29:01;96520.91;;;31.31;74.66
40502;BME280;29631;49.168;9.848;2023-06-19T10:31:29;96532.25;;;31.45;74.28
40502;BME280;29631;49.168;9.848;2023-06-19T10:33:55;96529.75;;;31.40;74.29
40502;BME280;29631;49.168;9.848;2023-06-19T10:36:23;96523.16;;;31.41;75.03
40502;BME280;29631;49.168;9.848;2023-06-19T10:38:50;96531.38;;;31.53;74.70
40502;BME280;29631;49.168;9.848;2023-06-19T10:41:25;96526.84;;;31.57;75.09
40502;BME280;29631;49.168;9.848;2023-06-19T10:44:02;96530.34;;;31.69;74.65
40502;BME280;29631;49.168;9.848;2023-06-19T10:46:36;96530.03;;;31.83;74.86
40502;BME280;29631;49.168;9.848;2023-06-19T10:49:05;96486.59;;;31.66;74.78
40502;BME280;29631;49.168;9.848;2023-06-19T10:51:34;96510.91;;;31.95;74.28
40502;BME280;29631;49.168;9.848;2023-06-19T10:54:00;96521.38;;;32.05;74.50
40502;BME280;29631;49.168;9.848;2023-06-19T10:56:26;96472.94;;;31.78;74.75
40502;BME280;29631;49.168;9.848;2023-06-19T10:59:06;96513.66;;;32.07;74.48
40502;BME280;29631;49.168;9.848;2023-06-19T11:01:42;96525.66;;;32.18;75.01
40502;BME280;29631;49.168;9.848;2023-06-19T11:04:10;96515.09;;;32.16;74.72
40502;BME280;29631;49.168;9.848;2023-06-19T11:06:38;96462.47;;;31.92;74.86
40502;BME280;29631;49.168;9.848;2023-06-19T11:09:06;96500.16;;;32.26;75.13
40502;BME280;29631;49.168;9.848;2023-06-19T11:11:43;96511.41;;;32.36;74.94
40502;BME280;29631;49.168;9.848;2023-06-19T11:14:11;96513.38;;;32.51;74.72
40502;BME280;29631;49.168;9.848;2023-06-19T11:16:43;96519.88;;;32.58;74.99
40502;BME280;29631;49.168;9.848;2023-06-19T11:19:20;96500.31;;;32.56;74.99
40502;BME280;29631;49.168;9.848;2023-06-19T11:21:51;96514.38;;;32.70;74.74
40502;BME280;29631;49.168;9.848;2023-06-19T11:24:18;96510.25;;;32.76;74.50
40502;BME280;29631;49.168;9.848;2023-06-19T11:26:48;96495.44;;;32.77;74.15
40502;BME280;29631;49.168;9.848;2023-06-19T11:29:24;96502.88;;;32.92;74.15
40502;BME280;29631;49.168;9.848;2023-06-19T11:32:03;96483.97;;;32.87;74.14
40502;BME280;29631;49.168;9.848;2023-06-19T11:34:35;96498.94;;;33.05;74.82
40502;BME280;29631;49.168;9.848;2023-06-19T11:37:14;96486.84;;;33.06;74.51
40502;BME280;29631;49.168;9.848;2023-06-19T11:39:43;96480.94;;;33.04;74.24
40502;BME280;29631;49.168;9.848;2023-06-19T11:42:09;96486.63;;;33.11;73.95
40502;BME280;29631;49.168;9.848;2023-06-19T11:44:34;96488.63;;;33.14;73.74
40502;BME280;29631;49.168;9.848;2023-06-19T11:47:00;96476.09;;;33.13;74.13
40502;BME280;29631;49.168;9.848;2023-06-19T11:49:27;96480.34;;;33.26;73.93
40502;BME280;29631;49.168;9.848;2023-06-19T11:51:58;96477.28;;;33.27;74.05
40502;BME280;29631;49.168;9.848;2023-06-19T11:54:23;96477.44;;;33.34;73.82
40502;BME280;29631;49.168;9.848;2023-06-19T11:56:49;96464.00;;;33.29;73.69
40502;BME280;29631;49.168;9.848;2023-06-19T11:59:15;96436.22;;;33.12;73.23
40502;BME280;29631;49.168;9.848;2023-06-19T12:01:40;96477.50;;;33.38;73.30
40502;BME280;29631;49.168;9.848;2023-06-19T12:04:06;96450.69;;;33.28;72.91
40502;BME280;29631;49.168;9.848;2023-06-19T12:06:32;96432.34;;;33.13;72.72
40502;BME280;29631;49.168;9.848;2023-06-19T12:09:00;96469.66;;;33.36;72.77
40502;BME280;29631;49.168;9.848;2023-06-19T12:11:26;96459.78;;;33.32;72.92
40502;BME280;29631;49.168;9.848;2023-06-19T12:13:52;96448.84;;;33.32;72.41
40502;BME280;29631;49.168;9.848;2023-06-19T12:16:23;96457.66;;;33.41;72.38
40502;BME280;29631;49.168;9.848;2023-06-19T12:18:49;96451.75;;;33.39;72.33
40502;BME280;29631;49.168;9.848;2023-06-19T12:21:14;96447.16;;;33.43;72.62
40502;BME280;29631;49.168;9.848;2023-06-19T12:23:40;96465.59;;;33.61;72.40
40502;BME280;29631;49.168;9.848;2023-06-19T12:26:06;96450.41;;;33.64;71.88
40502;BME280;29631;49.168;9.848;2023-06-19T12:28:32;96454.66;;;33.61;71.97
40502;BME280;29631;49.168;9.848;2023-06-19T12:30:57;96444.59;;;33.50;71.76
40502;BME280;29631;49.168;9.848;2023-06-19T12:33:24;96454.56;;;33.58;71.85
40502;BME280;29631;49.168;9.848;2023-06-19T12:35:50;96451.22;;;33.49;72.16
40502;BME280;29631;49.168;9.848;2023-06-19T12:38:15;96459.06;;;33.50;72.51
40502;BME280;29631;49.168;9.848;2023-06-19T12:40:41;96458.81;;;33.55;71.55
40502;BME280;29631;49.168;9.848;2023-06-19T12:43:07;96457.31;;;33.58;71.40
40502;BME280;29631;49.168;9.848;2023-06-19T12:45:33;96457.38;;;33.61;71.09
40502;BME280;29631;49.168;9.848;2023-06-19T12:47:58;96455.19;;;33.67;71.03
40502;BME280;29631;49.168;9.848;2023-06-19T12:50:24;96412.75;;;33.42;71.12
40502;BME280;29631;49.168;9.848;2023-06-19T12:52:50;96455.88;;;33.79;71.55
40502;BME280;29631;49.168;9.848;2023-06-19T12:55:16;96454.78;;;33.84;71.50
40502;BME280;29631;49.168;9.848;2023-06-19T12:57:42;96430.72;;;33.74;71.75
40502;BME280;29631;49.168;9.848;2023-06-19T13:00:12;96464.47;;;33.96;71.98
40502;BME280;29631;49.168;9.848;2023-06-19T13:02:41;96459.44;;;33.98;71.85
40502;BME280;29631;49.168;9.848;2023-06-19T13:05:09;96450.50;;;34.01;71.94
40502;BME280;29631;49.168;9.848;2023-06-19T13:07:35;96455.28;;;34.04;71.81